LHR weather

London Heathrow Airport
London, England, United Kingdom

Public forecast

Using degrees Celsius for public forecast. Weather courtesy of forecast.io.

METAR (pilot weather report)

Retrieved 2017/05/23 20:20 UTC (0 seconds ago):

EGLL 232020Z AUTO 25009KT 9999 NCD 19/14 Q1024 NOSIG

TAF (pilot weather forecast)

Retrieved 2017/05/23 18:15 UTC (2 hours ago):

TAF EGLL 231656Z 2318/2424 26006KT 9999 SCT030 PROB30 TEMPO 2404/2407 8000